createdAt,value
2022-12-02T00:01:21.004Z,1.60
2022-12-02T00:03:51.941Z,1.60
2022-12-02T00:06:27.484Z,1.60
2022-12-02T00:09:03.216Z,1.61
2022-12-02T00:11:34.244Z,1.60
2022-12-02T00:14:14.324Z,1.61
2022-12-02T00:16:44.798Z,1.65
2022-12-02T00:19:15.360Z,1.71
2022-12-02T00:21:46.048Z,1.75
2022-12-02T00:24:16.442Z,1.78
2022-12-02T00:26:47.249Z,1.79
2022-12-02T00:29:17.756Z,1.79
2022-12-02T00:31:48.370Z,1.78
2022-12-02T00:34:21.530Z,1.76
2022-12-02T00:36:51.975Z,1.77
2022-12-02T00:39:22.425Z,1.78
2022-12-02T00:41:52.912Z,1.77
2022-12-02T00:44:41.193Z,1.74
2022-12-02T00:47:11.694Z,1.68
2022-12-02T00:49:42.161Z,1.62
2022-12-02T00:52:12.620Z,1.56
2022-12-02T00:54:43.287Z,1.53
2022-12-02T00:57:13.804Z,1.50
2022-12-02T00:59:44.496Z,1.47
2022-12-02T01:02:14.951Z,1.41
2022-12-02T01:04:45.494Z,1.38
2022-12-02T01:07:16.016Z,1.36
2022-12-02T01:09:46.531Z,1.36
2022-12-02T01:12:18.244Z,1.38
2022-12-02T01:14:50.814Z,1.40
2022-12-02T01:17:21.374Z,1.42
2022-12-02T01:19:51.876Z,1.42
2022-12-02T01:22:22.357Z,1.44
2022-12-02T01:24:54.615Z,1.42
2022-12-02T01:27:25.041Z,1.44
2022-12-02T01:29:55.492Z,1.46
2022-12-02T01:32:26.984Z,1.47
2022-12-02T01:34:57.380Z,1.47
2022-12-02T01:37:27.925Z,1.45
2022-12-02T01:39:58.368Z,1.41
2022-12-02T01:42:28.965Z,1.36
2022-12-02T01:44:59.995Z,1.31
2022-12-02T01:47:30.956Z,1.25
2022-12-02T01:50:01.425Z,1.18
2022-12-02T01:52:31.847Z,1.10
2022-12-02T01:55:03.089Z,1.05
2022-12-02T01:57:33.685Z,0.99
2022-12-02T02:00:04.855Z,0.93
2022-12-02T02:02:42.965Z,0.91
2022-12-02T02:05:16.314Z,0.90
2022-12-02T02:07:49.914Z,0.93
2022-12-02T02:10:21.211Z,0.94
2022-12-02T02:17:11.000Z,1.01
2022-12-02T02:19:41.631Z,1.00
2022-12-02T02:22:16.125Z,1.04
2022-12-02T02:24:46.522Z,1.07
2022-12-02T02:27:17.029Z,1.08
2022-12-02T02:29:47.811Z,1.08
2022-12-02T02:32:18.727Z,1.08
2022-12-02T02:34:49.511Z,1.09
2022-12-02T02:37:20.181Z,1.12
2022-12-02T02:39:51.274Z,1.17
2022-12-02T02:42:21.785Z,1.23
2022-12-02T02:44:52.696Z,1.28
2022-12-02T02:47:23.423Z,1.32
2022-12-02T02:50:10.876Z,1.38
2022-12-02T02:52:41.559Z,1.38
2022-12-02T02:55:13.063Z,1.41
2022-12-02T02:57:43.598Z,1.48
2022-12-02T03:00:16.529Z,1.52
2022-12-02T03:02:49.731Z,1.56
2022-12-02T03:05:21.701Z,1.58
2022-12-02T03:07:53.645Z,1.61
2022-12-02T03:10:24.282Z,1.66
2022-12-02T03:12:54.921Z,1.70
2022-12-02T03:15:28.283Z,1.74
2022-12-02T03:18:01.761Z,1.75
2022-12-02T03:20:32.581Z,1.75
2022-12-02T03:23:03.613Z,1.75
2022-12-02T03:25:34.291Z,1.73
2022-12-02T03:28:05.058Z,1.71
2022-12-02T03:30:35.591Z,1.71
2022-12-02T03:33:06.517Z,1.72
2022-12-02T03:35:36.938Z,1.73
2022-12-02T03:38:07.371Z,1.72
2022-12-02T03:40:37.995Z,1.71
2022-12-02T03:43:08.505Z,1.72
2022-12-02T03:45:39.032Z,1.74
2022-12-02T03:48:10.102Z,1.75
2022-12-02T03:50:41.110Z,1.78
2022-12-02T03:53:11.641Z,1.80
2022-12-02T03:55:42.191Z,1.83
2022-12-02T03:58:12.621Z,1.84
2022-12-02T04:00:43.076Z,1.83
2022-12-02T04:03:13.490Z,1.85
2022-12-02T04:05:49.281Z,1.86
2022-12-02T04:08:20.144Z,1.87
2022-12-02T04:10:50.540Z,1.89
2022-12-02T04:13:20.979Z,1.91
2022-12-02T04:15:51.491Z,1.93
2022-12-02T04:18:21.952Z,1.95
2022-12-02T04:20:52.727Z,1.98
2022-12-02T04:23:23.072Z,2.00
2022-12-02T04:25:53.516Z,2.02
2022-12-02T04:28:24.005Z,2.03
2022-12-02T04:30:54.455Z,2.03
2022-12-02T04:33:24.914Z,2.03
2022-12-02T04:35:55.321Z,2.01
2022-12-02T04:38:25.717Z,2.02
2022-12-02T04:40:56.172Z,2.01
2022-12-02T04:43:26.573Z,2.00
2022-12-02T04:45:57.003Z,2.00
2022-12-02T04:48:27.432Z,1.98
2022-12-02T04:50:57.881Z,1.95
2022-12-02T04:53:28.351Z,1.93
2022-12-02T04:55:58.840Z,1.91
2022-12-02T04:58:29.284Z,1.92
2022-12-02T05:01:02.042Z,1.93
2022-12-02T05:03:32.474Z,1.95
2022-12-02T05:06:03.025Z,1.95
2022-12-02T05:08:33.367Z,1.93
2022-12-02T05:11:03.899Z,1.94
2022-12-02T05:13:34.351Z,1.94
2022-12-02T05:16:04.866Z,1.94
2022-12-02T05:19:35.652Z,1.95
2022-12-02T05:22:06.134Z,1.92
2022-12-02T05:24:36.537Z,1.92
2022-12-02T05:27:07.390Z,1.92
2022-12-02T05:29:37.749Z,1.92
2022-12-02T05:32:08.310Z,1.92
2022-12-02T05:34:38.815Z,1.93
2022-12-02T05:37:09.233Z,1.93
2022-12-02T05:39:39.678Z,1.93
2022-12-02T05:42:12.971Z,1.94
2022-12-02T05:44:44.374Z,1.94
2022-12-02T05:47:16.541Z,1.93
2022-12-02T05:49:48.217Z,1.90
2022-12-02T05:52:25.204Z,1.87
2022-12-02T05:54:58.092Z,1.80
2022-12-02T05:57:30.693Z,1.76
2022-12-02T06:00:14.995Z,1.73
2022-12-02T06:02:48.037Z,1.71
2022-12-02T06:05:23.784Z,1.71
2022-12-02T06:07:56.794Z,1.70
2022-12-02T06:10:32.848Z,1.70
2022-12-02T06:13:10.903Z,1.68
2022-12-02T06:15:42.008Z,1.66
2022-12-02T06:18:16.441Z,1.63
2022-12-02T06:20:47.848Z,1.64
2022-12-02T06:23:22.075Z,1.65
2022-12-02T06:28:26.505Z,1.66
2022-12-02T06:31:00.359Z,1.62
2022-12-02T06:33:32.640Z,1.59
2022-12-02T06:36:06.023Z,1.54
2022-12-02T06:38:48.191Z,1.47
2022-12-02T06:41:22.597Z,1.41
2022-12-02T06:44:11.879Z,1.36
2022-12-02T06:46:42.380Z,1.27
2022-12-02T06:49:20.045Z,1.20
2022-12-02T06:51:58.973Z,1.13
2022-12-02T06:54:32.002Z,1.10
2022-12-02T06:57:02.469Z,1.08
2022-12-02T06:59:33.574Z,1.06
2022-12-02T07:02:08.520Z,1.04
2022-12-02T07:04:44.413Z,1.00
2022-12-02T07:07:20.693Z,0.95
2022-12-02T07:09:53.065Z,0.91
2022-12-02T07:12:25.790Z,0.90
2022-12-02T07:14:58.631Z,0.90
2022-12-02T07:17:30.979Z,0.87
2022-12-02T07:20:07.274Z,0.84
2022-12-02T07:22:40.598Z,0.77
2022-12-02T07:25:35.166Z,0.76
2022-12-02T07:28:16.297Z,0.77
2022-12-02T07:30:49.321Z,0.77
2022-12-02T07:33:18.626Z,0.75
2022-12-02T07:36:04.492Z,0.74
2022-12-02T07:39:04.731Z,0.69
2022-12-02T07:41:25.466Z,0.67
2022-12-02T07:43:55.963Z,0.67
2022-12-02T07:46:26.456Z,0.65
2022-12-02T07:48:57.418Z,0.60
2022-12-02T07:51:28.207Z,0.56
2022-12-02T07:53:58.609Z,0.55
2022-12-02T07:56:29.087Z,0.54
2022-12-02T07:59:11.888Z,0.54
2022-12-02T08:01:42.733Z,0.55
2022-12-02T08:04:13.232Z,0.55
2022-12-02T08:06:43.748Z,0.54
2022-12-02T08:09:14.194Z,0.52
2022-12-02T08:11:44.665Z,0.51
2022-12-02T08:14:15.033Z,0.50
2022-12-02T08:16:45.559Z,0.51
2022-12-02T08:19:16.165Z,0.51
2022-12-02T08:21:46.708Z,0.50
2022-12-02T08:24:17.417Z,0.52
2022-12-02T08:26:47.873Z,0.57
2022-12-02T08:29:18.305Z,0.62
2022-12-02T08:31:48.681Z,0.63
2022-12-02T08:34:19.162Z,0.63
2022-12-02T08:36:49.571Z,0.64
2022-12-02T08:39:20.098Z,0.63
2022-12-02T08:41:50.575Z,0.60
2022-12-02T08:44:23.010Z,0.62
2022-12-02T08:46:54.675Z,0.61
2022-12-02T08:49:25.678Z,0.58
2022-12-02T08:51:56.260Z,0.56
2022-12-02T08:54:26.723Z,0.55
2022-12-02T08:57:00.297Z,0.56
2022-12-02T08:59:30.693Z,0.59
2022-12-02T09:02:01.317Z,0.59
2022-12-02T09:04:31.824Z,0.59
2022-12-02T09:07:02.357Z,0.58
2022-12-02T09:09:32.831Z,0.58
2022-12-02T09:12:03.220Z,0.63
2022-12-02T09:14:33.616Z,0.66
2022-12-02T09:17:04.065Z,0.66
2022-12-02T09:19:34.660Z,0.65
2022-12-02T09:22:05.123Z,0.67
2022-12-02T09:24:35.599Z,0.67
2022-12-02T09:27:06.073Z,0.67
2022-12-02T09:29:36.515Z,0.68
2022-12-02T09:32:07.243Z,0.69
2022-12-02T09:34:37.647Z,0.69
2022-12-02T09:37:08.150Z,0.73
2022-12-02T09:39:39.518Z,0.73
2022-12-02T09:42:12.667Z,0.71
2022-12-02T09:44:41.545Z,0.70
2022-12-02T09:47:12.868Z,0.70
2022-12-02T09:49:43.577Z,0.71
2022-12-02T09:52:19.857Z,0.73
2022-12-02T09:54:55.363Z,0.76
2022-12-02T09:57:29.148Z,0.78
2022-12-02T10:00:00.628Z,0.81
2022-12-02T10:02:32.783Z,0.81
2022-12-02T10:05:08.774Z,0.82
2022-12-02T10:07:39.403Z,0.84
2022-12-02T10:10:13.220Z,0.84
2022-12-02T10:12:43.889Z,0.84
2022-12-02T10:15:17.806Z,0.87
2022-12-02T10:17:48.960Z,0.92
2022-12-02T10:20:22.236Z,0.95
2022-12-02T10:23:11.447Z,0.97
2022-12-02T10:25:43.708Z,0.99
2022-12-02T10:28:26.784Z,1.01
2022-12-02T10:31:01.515Z,1.03
2022-12-02T10:33:33.264Z,1.07
2022-12-02T10:36:03.838Z,1.09
2022-12-02T10:38:41.248Z,1.09
2022-12-02T10:41:22.700Z,1.12
2022-12-02T10:44:11.426Z,1.13
2022-12-02T10:46:41.900Z,1.18
2022-12-02T10:49:34.591Z,1.21
2022-12-02T10:52:08.794Z,1.19
2022-12-02T10:54:54.997Z,1.12
2022-12-02T10:57:27.880Z,1.07
2022-12-02T10:59:59.765Z,1.06
2022-12-02T11:02:35.892Z,1.04
2022-12-02T11:05:14.558Z,0.96
2022-12-02T11:07:53.564Z,0.89
2022-12-02T11:10:25.609Z,0.86
2022-12-02T11:13:31.064Z,0.80
2022-12-02T11:16:52.682Z,0.76
2022-12-02T11:19:43.426Z,0.76
2022-12-02T11:22:50.881Z,0.82
2022-12-02T11:25:58.614Z,0.84
2022-12-02T11:28:58.690Z,0.87
2022-12-02T11:31:29.908Z,0.94
2022-12-02T11:34:06.680Z,1.02
2022-12-02T11:36:38.021Z,1.07
2022-12-02T11:39:13.014Z,1.12
2022-12-02T11:42:22.984Z,1.21
2022-12-02T11:44:54.087Z,1.27
2022-12-02T11:47:31.509Z,1.31
2022-12-02T11:50:20.429Z,1.29
2022-12-02T11:52:54.648Z,1.28
2022-12-02T11:55:27.143Z,1.23
2022-12-02T11:57:58.903Z,1.18
2022-12-02T12:00:37.634Z,1.18
2022-12-02T12:03:11.001Z,1.19
2022-12-02T12:05:42.818Z,1.17
2022-12-02T12:08:19.400Z,1.12
2022-12-02T12:10:50.002Z,1.05
2022-12-02T12:13:24.129Z,0.97
2022-12-02T12:15:57.458Z,0.89
2022-12-02T12:18:46.923Z,0.83
2022-12-02T12:21:45.784Z,0.81
2022-12-02T12:24:33.045Z,0.78
2022-12-02T12:27:32.552Z,0.75
2022-12-02T12:30:03.004Z,0.77
2022-12-02T12:32:33.593Z,0.79
2022-12-02T12:35:04.014Z,0.85
2022-12-02T12:37:34.484Z,0.91
2022-12-02T12:40:05.097Z,0.89
2022-12-02T12:42:35.915Z,0.90
2022-12-02T12:45:08.721Z,0.90
2022-12-02T12:47:39.293Z,0.87
2022-12-02T12:50:11.400Z,0.86
2022-12-02T12:52:41.873Z,0.88
2022-12-02T12:55:12.600Z,0.87
2022-12-02T12:57:43.073Z,0.85
2022-12-02T13:00:15.836Z,0.88
2022-12-02T13:02:47.972Z,0.91
2022-12-02T13:05:18.490Z,0.90
2022-12-02T13:07:49.038Z,0.85
2022-12-02T13:10:19.858Z,0.85
2022-12-02T13:12:50.327Z,0.88
2022-12-02T13:15:20.849Z,0.91
2022-12-02T13:17:51.354Z,0.93
2022-12-02T13:20:21.835Z,0.93
2022-12-02T13:22:52.395Z,0.90
2022-12-02T13:25:25.755Z,0.84
2022-12-02T13:27:56.250Z,0.80
2022-12-02T13:30:26.737Z,0.77
2022-12-02T13:32:57.358Z,0.77
2022-12-02T13:35:27.949Z,0.79
2022-12-02T13:37:58.444Z,0.76
2022-12-02T13:40:29.092Z,0.69
2022-12-02T13:42:59.525Z,0.68
2022-12-02T13:45:30.356Z,0.61
2022-12-02T13:48:01.914Z,0.56
2022-12-02T13:50:32.587Z,0.55
2022-12-02T13:53:03.138Z,0.52
2022-12-02T13:55:33.645Z,0.47
2022-12-02T13:58:04.207Z,0.42
2022-12-02T14:00:34.611Z,0.39
2022-12-02T14:03:05.180Z,0.37
2022-12-02T14:05:35.709Z,0.33
2022-12-02T14:08:06.622Z,0.29
2022-12-02T14:10:37.177Z,0.21
2022-12-02T14:13:15.919Z,0.16
2022-12-02T14:15:48.988Z,0.13
2022-12-02T14:18:19.592Z,0.11
2022-12-02T14:20:50.069Z,0.12
2022-12-02T14:23:21.961Z,0.12
2022-12-02T14:25:52.386Z,0.10
2022-12-02T14:28:22.983Z,0.09
2022-12-02T14:30:53.453Z,0.08
2022-12-02T14:33:25.512Z,0.06
2022-12-02T14:36:03.952Z,0.04
2022-12-02T14:38:34.407Z,0.04
2022-12-02T14:41:04.771Z,0.04
2022-12-02T14:43:35.359Z,0.04
2022-12-02T14:46:05.812Z,0.03
2022-12-02T14:48:36.207Z,0.03
2022-12-02T14:51:06.739Z,0.00
2022-12-02T14:53:37.176Z,-0.02
2022-12-02T14:56:08.033Z,-0.05
2022-12-02T14:58:38.461Z,-0.05
2022-12-02T15:01:09.005Z,-0.03
2022-12-02T15:03:39.436Z,-0.02
2022-12-02T15:06:10.364Z,-0.05
2022-12-02T15:08:40.782Z,-0.08
2022-12-02T15:11:11.160Z,-0.12
2022-12-02T15:13:41.778Z,-0.17
2022-12-02T15:21:44.224Z,-0.23
2022-12-02T15:24:14.762Z,-0.30
2022-12-02T15:26:45.173Z,-0.33
2022-12-02T15:29:15.599Z,-0.34
2022-12-02T15:31:46.084Z,-0.35
2022-12-02T15:34:16.566Z,-0.37
2022-12-02T15:36:47.205Z,-0.42
2022-12-02T15:39:17.798Z,-0.46
2022-12-02T15:41:48.192Z,-0.49
2022-12-02T15:44:18.673Z,-0.50
2022-12-02T15:46:49.309Z,-0.52
2022-12-02T15:49:19.906Z,-0.55
2022-12-02T15:51:50.291Z,-0.58
2022-12-02T15:54:20.749Z,-0.60
2022-12-02T15:56:54.381Z,-0.59
2022-12-02T15:59:25.011Z,-0.58
2022-12-02T16:01:55.564Z,-0.57
2022-12-02T16:04:25.919Z,-0.58
2022-12-02T16:06:56.323Z,-0.58
2022-12-02T16:09:26.905Z,-0.58
2022-12-02T16:11:57.367Z,-0.59
2022-12-02T16:14:27.856Z,-0.62
2022-12-02T16:16:58.242Z,-0.64
2022-12-02T16:19:28.864Z,-0.64
2022-12-02T16:21:59.271Z,-0.64
2022-12-02T16:24:29.723Z,-0.62
2022-12-02T16:27:00.183Z,-0.61
2022-12-02T16:29:30.791Z,-0.63
2022-12-02T16:32:01.212Z,-0.62
2022-12-02T16:34:31.722Z,-0.61
2022-12-02T16:37:02.115Z,-0.62
2022-12-02T16:39:32.601Z,-0.63
2022-12-02T16:42:02.936Z,-0.64
2022-12-02T16:44:33.366Z,-0.64
2022-12-02T16:47:04.256Z,-0.63
2022-12-02T16:49:34.794Z,-0.64
2022-12-02T16:52:05.438Z,-0.65
2022-12-02T16:54:35.956Z,-0.65
2022-12-02T16:57:06.490Z,-0.63
2022-12-02T16:59:37.006Z,-0.62
2022-12-02T17:02:07.561Z,-0.61
2022-12-02T17:04:38.039Z,-0.63
2022-12-02T17:07:08.458Z,-0.66
2022-12-02T17:09:41.665Z,-0.66
2022-12-02T17:12:12.073Z,-0.65
2022-12-02T17:14:42.572Z,-0.66
2022-12-02T17:17:37.749Z,-0.68
2022-12-02T17:20:03.400Z,-0.69
2022-12-02T17:22:33.887Z,-0.69
2022-12-02T17:25:04.394Z,-0.69
2022-12-02T17:27:34.836Z,-0.69
2022-12-02T17:30:06.071Z,-0.72
2022-12-02T17:32:36.528Z,-0.74
2022-12-02T17:35:08.145Z,-0.74
2022-12-02T17:37:38.498Z,-0.72
2022-12-02T17:40:11.706Z,-0.70
2022-12-02T17:42:42.261Z,-0.70
2022-12-02T17:45:13.438Z,-0.73
2022-12-02T17:47:43.813Z,-0.73
2022-12-02T17:50:16.866Z,-0.73
2022-12-02T17:52:47.304Z,-0.75
2022-12-02T17:55:18.105Z,-0.76
2022-12-02T17:57:48.634Z,-0.78
2022-12-02T18:00:20.592Z,-0.80
2022-12-02T18:02:51.035Z,-0.82
2022-12-02T18:05:21.455Z,-0.84
2022-12-02T18:07:51.949Z,-0.87
2022-12-02T18:10:22.414Z,-0.89
2022-12-02T18:12:52.869Z,-0.90
2022-12-02T18:15:23.246Z,-0.91
2022-12-02T18:17:53.802Z,-0.92
2022-12-02T18:20:24.894Z,-0.92
2022-12-02T18:22:58.985Z,-0.94
2022-12-02T18:25:29.503Z,-0.93
2022-12-02T18:28:00.014Z,-0.92
2022-12-02T18:30:30.542Z,-0.91
2022-12-02T18:33:01.000Z,-0.93
2022-12-02T18:35:31.630Z,-0.94
2022-12-02T18:38:02.010Z,-0.94
2022-12-02T18:40:32.404Z,-0.94
2022-12-02T18:43:03.337Z,-0.94
2022-12-02T18:45:33.835Z,-0.95
2022-12-02T18:48:04.291Z,-0.95
2022-12-02T18:50:34.864Z,-0.96
2022-12-02T18:53:05.479Z,-0.95
2022-12-02T18:55:36.077Z,-0.95
2022-12-02T18:58:06.492Z,-0.95
2022-12-02T19:00:37.001Z,-0.97
2022-12-02T19:03:07.514Z,-0.98
2022-12-02T19:05:38.011Z,-0.98
2022-12-02T19:08:08.571Z,-0.98
2022-12-02T19:10:39.046Z,-0.98
2022-12-02T19:13:09.633Z,-0.99
2022-12-02T19:15:40.137Z,-1.00
2022-12-02T19:18:10.652Z,-0.99
2022-12-02T19:20:41.163Z,-1.00
2022-12-02T19:23:11.603Z,-1.02
2022-12-02T19:25:45.962Z,-1.03
2022-12-02T19:28:19.965Z,-1.04
2022-12-02T19:30:50.620Z,-1.04
2022-12-02T19:33:21.227Z,-1.03
2022-12-02T19:35:51.642Z,-1.02
2022-12-02T19:38:22.359Z,-1.04
2022-12-02T19:40:52.919Z,-1.05
2022-12-02T19:43:23.392Z,-1.05
2022-12-02T19:45:53.930Z,-1.04
2022-12-02T19:48:24.519Z,-1.03
2022-12-02T19:50:55.728Z,-1.05
2022-12-02T19:53:26.205Z,-1.04
2022-12-02T19:55:56.623Z,-1.01
2022-12-02T19:58:27.071Z,-1.00
2022-12-02T20:00:57.663Z,-1.01
2022-12-02T20:03:28.241Z,-1.04
2022-12-02T20:06:02.799Z,-1.06
2022-12-02T20:08:33.383Z,-1.07
2022-12-02T20:11:03.830Z,-1.06
2022-12-02T20:13:34.394Z,-1.07
2022-12-02T20:16:05.088Z,-1.09
2022-12-02T20:18:35.686Z,-1.12
2022-12-02T20:21:11.512Z,-1.12
2022-12-02T20:23:45.107Z,-1.11
2022-12-02T20:26:15.856Z,-1.11
2022-12-02T20:28:46.480Z,-1.12
2022-12-02T20:31:16.958Z,-1.10
2022-12-02T20:33:47.422Z,-1.08
2022-12-02T20:36:17.811Z,-1.06
2022-12-02T20:38:48.781Z,-1.08
2022-12-02T20:41:19.338Z,-1.11
2022-12-02T20:43:50.072Z,-1.12
2022-12-02T20:46:20.543Z,-1.12
2022-12-02T20:48:51.136Z,-1.12
2022-12-02T20:51:21.627Z,-1.13
2022-12-02T20:53:53.348Z,-1.17
2022-12-02T20:56:23.775Z,-1.20
2022-12-02T20:58:54.231Z,-1.19
2022-12-02T21:01:24.866Z,-1.18
2022-12-02T21:03:55.597Z,-1.18
2022-12-02T21:06:26.055Z,-1.19
2022-12-02T21:08:56.444Z,-1.20
2022-12-02T21:11:27.202Z,-1.19
2022-12-02T21:13:57.681Z,-1.18
2022-12-02T21:16:28.375Z,-1.18
2022-12-02T21:18:58.877Z,-1.18
2022-12-02T21:21:29.252Z,-1.18
2022-12-02T21:24:03.739Z,-1.17
2022-12-02T21:26:34.783Z,-1.14
2022-12-02T21:29:05.185Z,-1.13
2022-12-02T21:31:35.754Z,-1.15
2022-12-02T21:34:07.177Z,-1.16
2022-12-02T21:36:38.860Z,-1.15
2022-12-02T21:39:09.736Z,-1.14
2022-12-02T21:41:40.154Z,-1.15
2022-12-02T21:44:10.640Z,-1.16
2022-12-02T21:46:41.286Z,-1.16
2022-12-02T21:49:11.897Z,-1.15
2022-12-02T21:51:42.407Z,-1.13
2022-12-02T21:54:13.035Z,-1.12
2022-12-02T21:56:43.412Z,-1.14
2022-12-02T21:59:13.828Z,-1.14
2022-12-02T22:01:45.762Z,-1.10
2022-12-02T22:04:17.815Z,-1.09
2022-12-02T22:06:48.710Z,-1.07
2022-12-02T22:09:19.159Z,-1.08
2022-12-02T22:11:49.743Z,-1.08
2022-12-02T22:14:20.144Z,-1.06
2022-12-02T22:16:50.720Z,-1.04
2022-12-02T22:19:21.191Z,-1.06
2022-12-02T22:21:51.675Z,-1.08
2022-12-02T22:24:22.245Z,-1.09
2022-12-02T22:26:52.672Z,-1.09
2022-12-02T22:29:23.066Z,-1.09
2022-12-02T22:31:53.576Z,-1.10
2022-12-02T22:34:24.026Z,-1.14
2022-12-02T22:36:54.600Z,-1.17
2022-12-02T22:39:26.559Z,-1.18
2022-12-02T22:41:57.128Z,-1.18
2022-12-02T22:44:27.587Z,-1.18
2022-12-02T22:46:58.016Z,-1.18
2022-12-02T22:49:28.468Z,-1.20
2022-12-02T22:51:58.906Z,-1.21
2022-12-02T22:54:29.324Z,-1.20
2022-12-02T22:56:59.862Z,-1.18
2022-12-02T22:59:30.346Z,-1.19
2022-12-02T23:02:00.886Z,-1.23
2022-12-02T23:04:31.345Z,-1.25
2022-12-02T23:07:01.816Z,-1.24
2022-12-02T23:09:32.325Z,-1.25
2022-12-02T23:12:03.048Z,-1.26
2022-12-02T23:14:33.501Z,-1.28
2022-12-02T23:17:04.061Z,-1.30
2022-12-02T23:19:37.220Z,-1.30
2022-12-02T23:22:07.769Z,-1.29
2022-12-02T23:24:38.205Z,-1.28
2022-12-02T23:27:08.812Z,-1.28
2022-12-02T23:29:39.261Z,-1.29
2022-12-02T23:32:09.805Z,-1.28
2022-12-02T23:34:40.311Z,-1.27
2022-12-02T23:37:13.013Z,-1.27
2022-12-02T23:39:46.519Z,-1.27
2022-12-02T23:42:17.023Z,-1.27
2022-12-02T23:44:47.470Z,-1.26
2022-12-02T23:47:17.956Z,-1.24
2022-12-02T23:49:48.405Z,-1.23
2022-12-02T23:52:18.828Z,-1.24
2022-12-02T23:54:49.900Z,-1.24
2022-12-02T23:57:20.570Z,-1.24
2022-12-02T23:59:51.043Z,-1.23
